Time;durP1;ratioP1;P1;durP2;ratioP2;P2;SDS_P1;SDS_P2;PMS_P1;PMS_P2;Temp;Humidity;BMP_temperature;BMP_pressure;BME280_temperature;BME280_humidity;BME280_pressure;Samples;Min_cycle;Max_cycle;Signal;HPM_P1;HPM_P2
2021/12/24 00:02:16;;;;;;;4.80;3.30;;;;;;;;;;5056693;28;20406;-64
2021/12/24 00:04:42;;;;;;;3.80;3.70;;;;;;;;;;5056757;28;20463;-64
2021/12/24 00:07:08;;;;;;;3.37;3.27;;;;;;;;;;5056485;28;20813;-65
2021/12/24 00:09:36;;;;;;;4.40;4.10;;;;;;;;;;5056426;28;20434;-64
2021/12/24 00:12:09;;;;;;;3.20;3.10;;;;;;;;;;5056690;28;20411;-63
2021/12/24 00:14:35;;;;;;;3.53;3.13;;;;;;;;;;5056394;28;20478;-65
2021/12/24 00:17:04;;;;;;;3.20;3.10;;;;;;;;;;5056322;28;20906;-65
2021/12/24 00:35:35;;;;;;;4.33;4.10;;;;;;;;;;5056270;28;20386;-63
2021/12/24 00:38:06;;;;;;;3.47;3.27;;;;;;;;;;5055960;28;20398;-63
2021/12/24 00:40:37;;;;;;;3.60;3.30;;;;;;;;;;5054375;28;20411;-64
2021/12/24 00:43:03;;;;;;;4.30;4.00;;;;;;;;;;5055855;28;20407;-62
2021/12/24 00:45:31;;;;;;;3.70;3.60;;;;;;;;;;5055786;28;20470;-62
2021/12/24 00:47:58;;;;;;;3.40;3.20;;;;;;;;;;5055761;28;20398;-63
2021/12/24 00:50:26;;;;;;;3.23;2.87;;;;;;;;;;5055806;28;20403;-62
2021/12/24 00:52:57;;;;;;;3.13;3.13;;;;;;;;;;5055901;28;20395;-62
2021/12/24 00:55:25;;;;;;;11.93;7.70;;;;;;;;;;5055646;28;20384;-62
2021/12/24 00:57:53;;;;;;;4.43;3.57;;;;;;;;;;5055893;28;20491;-64
2021/12/24 01:00:23;;;;;;;3.50;3.30;;;;;;;;;;5055513;28;20427;-62
2021/12/24 01:02:50;;;;;;;3.93;3.63;;;;;;;;;;5055709;28;20436;-62
2021/12/24 01:05:16;;;;;;;3.93;3.63;;;;;;;;;;5055423;28;20466;-63
2021/12/24 01:07:45;;;;;;;4.30;3.37;;;;;;;;;;5055711;28;20437;-62
2021/12/24 01:10:11;;;;;;;3.90;3.60;;;;;;;;;;5055195;28;20961;-62
2021/12/24 01:12:37;;;;;;;4.73;4.50;;;;;;;;;;5055621;28;20500;-62
2021/12/24 01:15:04;;;;;;;3.80;3.60;;;;;;;;;;5055320;28;20951;-62
2021/12/24 01:17:45;;;;;;;4.30;3.90;;;;;;;;;;5055310;28;20391;-62
2021/12/24 01:21:07;;;;;;;3.60;3.47;;;;;;;;;;5055192;28;20475;-62
2021/12/24 01:25:49;;;;;;;3.00;2.90;;;;;;;;;;5055401;28;20488;-62
2021/12/24 01:44:35;;;;;;;3.23;3.13;;;;;;;;;;5054738;28;20600;-65
2021/12/24 01:47:02;;;;;;;5.40;4.90;;;;;;;;;;5054938;28;20460;-65
2021/12/24 01:49:29;;;;;;;3.23;3.13;;;;;;;;;;5054648;28;20403;-64
2021/12/24 01:51:55;;;;;;;3.37;3.00;;;;;;;;;;5053842;28;20402;-66
2021/12/24 01:54:21;;;;;;;4.00;2.93;;;;;;;;;;5054438;28;20461;-62
2021/12/24 01:56:47;;;;;;;3.33;3.07;;;;;;;;;;5054549;28;20395;-62
2021/12/24 01:59:14;;;;;;;3.20;3.10;;;;;;;;;;5054411;28;20419;-64
2021/12/24 02:01:40;;;;;;;3.43;3.23;;;;;;;;;;5054389;28;20414;-63
2021/12/24 02:04:06;;;;;;;3.13;3.03;;;;;;;;;;5054276;28;20490;-64
2021/12/24 02:06:32;;;;;;;3.33;3.23;;;;;;;;;;5054290;28;20461;-64
2021/12/24 02:08:58;;;;;;;2.50;2.50;;;;;;;;;;5054280;28;20391;-65
2021/12/24 02:11:24;;;;;;;2.87;2.67;;;;;;;;;;5054168;28;20467;-64
2021/12/24 02:13:51;;;;;;;2.93;2.90;;;;;;;;;;5054466;28;20507;-64
2021/12/24 02:29:54;;;;;;;3.00;2.90;;;;;;;;;;5053964;28;20394;-65
2021/12/24 02:32:20;;;;;;;4.47;3.30;;;;;;;;;;5053942;28;20410;-65
2021/12/24 02:34:46;;;;;;;9.07;2.80;;;;;;;;;;5053875;28;20406;-67
2021/12/24 02:37:13;;;;;;;2.73;2.53;;;;;;;;;;5053799;28;20472;-64
2021/12/24 02:39:39;;;;;;;2.80;2.70;;;;;;;;;;5053819;28;20955;-66
2021/12/24 02:42:16;;;;;;;4.83;3.20;;;;;;;;;;5053959;28;20411;-65
2021/12/24 02:44:43;;;;;;;3.20;3.00;;;;;;;;;;5053849;28;20474;-68
2021/12/24 02:47:36;;;;;;;3.40;3.03;;;;;;;;;;5053676;28;20482;-64
2021/12/24 02:55:11;;;;;;;3.57;3.43;;;;;;;;;;5053769;28;20437;-65
2021/12/24 02:57:38;;;;;;;3.03;2.80;;;;;;;;;;5053534;28;20810;-66
2021/12/24 03:00:14;;;;;;;3.27;3.00;;;;;;;;;;5053760;28;20443;-67
2021/12/24 03:02:43;;;;;;;7.00;2.97;;;;;;;;;;5053447;28;20395;-64
2021/12/24 03:05:10;;;;;;;2.63;2.43;;;;;;;;;;5053252;28;21000;-67
2021/12/24 03:07:36;;;;;;;3.13;2.93;;;;;;;;;;5052163;28;20937;-68
2021/12/24 03:10:03;;;;;;;5.77;3.50;;;;;;;;;;5053316;28;20512;-65
2021/12/24 03:12:30;;;;;;;3.70;2.57;;;;;;;;;;5053401;28;20492;-64
2021/12/24 03:14:56;;;;;;;2.70;2.60;;;;;;;;;;5053420;28;20410;-69
2021/12/24 03:17:24;;;;;;;2.50;2.40;;;;;;;;;;5053439;28;20403;-64
2021/12/24 03:19:52;;;;;;;3.17;3.07;;;;;;;;;;5053542;28;20455;-71
2021/12/24 03:24:51;;;;;;;3.40;3.20;;;;;;;;;;5053862;28;21053;-71
2021/12/24 03:27:17;;;;;;;3.57;3.30;;;;;;;;;;5053653;28;20395;-71
2021/12/24 03:29:43;;;;;;;2.50;2.50;;;;;;;;;;5053610;28;20927;-71
2021/12/24 03:32:09;;;;;;;2.40;2.40;;;;;;;;;;5053561;28;20415;-71
2021/12/24 03:34:35;;;;;;;3.70;3.60;;;;;;;;;;5053444;28;20403;-71
2021/12/24 03:37:02;;;;;;;3.33;3.20;;;;;;;;;;5053218;28;20399;-69
2021/12/24 03:39:28;;;;;;;2.37;2.27;;;;;;;;;;5053086;28;20395;-68
2021/12/24 03:41:54;;;;;;;3.10;3.00;;;;;;;;;;5053224;28;20456;-69
2021/12/24 03:44:20;;;;;;;4.20;3.40;;;;;;;;;;5053069;28;20467;-70
2021/12/24 03:52:19;;;;;;;2.20;2.20;;;;;;;;;;5053022;28;20406;-67
2021/12/24 03:54:55;;;;;;;2.43;2.43;;;;;;;;;;5053198;28;20407;-70
2021/12/24 03:57:22;;;;;;;2.70;2.60;;;;;;;;;;5053162;28;20430;-70
2021/12/24 03:59:48;;;;;;;3.03;2.80;;;;;;;;;;5052949;28;20410;-68
2021/12/24 04:02:14;;;;;;;2.73;2.70;;;;;;;;;;5052911;28;20758;-69
2021/12/24 04:04:40;;;;;;;2.80;2.70;;;;;;;;;;5052838;28;20498;-68
2021/12/24 04:07:06;;;;;;;2.83;2.73;;;;;;;;;;5053041;28;20410;-68
2021/12/24 04:09:34;;;;;;;3.30;2.93;;;;;;;;;;5052911;28;20430;-70
2021/12/24 04:12:00;;;;;;;3.33;2.70;;;;;;;;;;5053016;28;20422;-71
2021/12/24 04:14:26;;;;;;;2.73;2.53;;;;;;;;;;5053547;28;20411;-70
2021/12/24 04:16:52;;;;;;;2.37;2.37;;;;;;;;;;5056453;28;20478;-70
2021/12/24 04:24:59;;;;;;;2.10;2.00;;;;;;;;;;5054291;28;20482;-70
2021/12/24 04:27:29;;;;;;;2.90;2.73;;;;;;;;;;5056444;28;20403;-71
2021/12/24 04:30:03;;;;;;;2.77;2.57;;;;;;;;;;5056203;28;20415;-71
2021/12/24 04:51:32;;;;;;;3.37;2.57;;;;;;;;;;5055851;28;20413;-70
2021/12/24 05:02:36;;;;;;;2.70;2.60;;;;;;;;;;5055834;28;20395;-63
2021/12/24 05:05:11;;;;;;;2.67;2.57;;;;;;;;;;5055381;28;20561;-66
2021/12/24 05:10:16;;;;;;;3.00;2.90;;;;;;;;;;5055310;28;20474;-62
2021/12/24 05:12:42;;;;;;;2.30;2.20;;;;;;;;;;5055603;28;20403;-65
2021/12/24 05:15:09;;;;;;;2.60;2.50;;;;;;;;;;5055300;28;20798;-63
2021/12/24 05:23:15;;;;;;;2.87;2.60;;;;;;;;;;5055484;28;20959;-64
2021/12/24 05:25:42;;;;;;;3.37;3.27;;;;;;;;;;5054464;28;20470;-65
2021/12/24 05:28:09;;;;;;;2.70;2.60;;;;;;;;;;5054807;28;20411;-62
2021/12/24 05:30:35;;;;;;;2.50;2.50;;;;;;;;;;5055054;28;20409;-65
2021/12/24 05:33:01;;;;;;;2.23;2.13;;;;;;;;;;5055239;28;20802;-65
2021/12/24 05:35:27;;;;;;;2.57;2.47;;;;;;;;;;5054903;28;20399;-64
2021/12/24 05:37:53;;;;;;;2.20;2.10;;;;;;;;;;5054920;28;20411;-65
2021/12/24 05:40:18;;;;;;;3.00;2.80;;;;;;;;;;5054853;28;20808;-65
2021/12/24 05:42:44;;;;;;;7.97;2.83;;;;;;;;;;5054837;28;20403;-64
2021/12/24 05:45:10;;;;;;;2.53;2.53;;;;;;;;;;5054673;28;20953;-63
2021/12/24 05:47:37;;;;;;;2.57;2.57;;;;;;;;;;5055005;28;20407;-66
2021/12/24 05:50:05;;;;;;;2.83;2.70;;;;;;;;;;5054683;28;20414;-63
2021/12/24 05:52:31;;;;;;;2.43;2.43;;;;;;;;;;5054870;28;20395;-63
2021/12/24 05:54:57;;;;;;;2.60;2.60;;;;;;;;;;5054577;28;20407;-65
2021/12/24 05:57:24;;;;;;;3.80;3.50;;;;;;;;;;5054491;28;20791;-63
2021/12/24 05:59:50;;;;;;;2.83;2.73;;;;;;;;;;5054472;28;20403;-63
2021/12/24 06:02:16;;;;;;;2.87;2.73;;;;;;;;;;5054418;28;20402;-65
2021/12/24 06:04:42;;;;;;;3.00;2.80;;;;;;;;;;5054371;28;20466;-63
2021/12/24 06:07:08;;;;;;;3.53;2.93;;;;;;;;;;5054302;28;20388;-64
2021/12/24 06:09:34;;;;;;;2.60;2.60;;;;;;;;;;5054149;28;20913;-63
2021/12/24 06:12:00;;;;;;;3.17;3.00;;;;;;;;;;5054216;28;20415;-68
2021/12/24 06:14:26;;;;;;;3.23;3.03;;;;;;;;;;5054341;28;20534;-65
2021/12/24 06:17:01;;;;;;;2.83;2.73;;;;;;;;;;5054451;28;20399;-63
2021/12/24 06:19:27;;;;;;;2.33;2.23;;;;;;;;;;5054465;28;20426;-62
2021/12/24 06:21:57;;;;;;;3.40;3.30;;;;;;;;;;5054084;28;20484;-64
2021/12/24 06:24:23;;;;;;;3.07;3.07;;;;;;;;;;5053916;28;20964;-62
2021/12/24 06:26:49;;;;;;;2.70;2.60;;;;;;;;;;5053007;28;21005;-66
2021/12/24 06:29:15;;;;;;;2.90;2.80;;;;;;;;;;5054041;28;20407;-62
2021/12/24 06:31:41;;;;;;;2.60;2.60;;;;;;;;;;5053909;28;20805;-66
2021/12/24 06:34:07;;;;;;;8.00;2.90;;;;;;;;;;5053918;28;20399;-66
2021/12/24 06:36:37;;;;;;;3.13;3.03;;;;;;;;;;5053833;28;20414;-64
2021/12/24 06:39:05;;;;;;;5.03;2.90;;;;;;;;;;5053712;28;20411;-66
2021/12/24 06:41:32;;;;;;;2.80;2.80;;;;;;;;;;5053764;28;20459;-67
2021/12/24 06:43:58;;;;;;;2.60;2.37;;;;;;;;;;5053747;28;20537;-65
2021/12/24 06:46:24;;;;;;;2.97;2.77;;;;;;;;;;5054043;28;20407;-67
2021/12/24 06:48:56;;;;;;;3.47;3.27;;;;;;;;;;5053700;28;20486;-65
2021/12/24 06:51:22;;;;;;;3.03;2.93;;;;;;;;;;5053900;28;20412;-66
2021/12/24 06:53:48;;;;;;;2.97;2.87;;;;;;;;;;5053660;28;20407;-64
2021/12/24 06:56:13;;;;;;;2.30;2.30;;;;;;;;;;5053608;28;20398;-64
2021/12/24 06:58:39;;;;;;;2.30;2.30;;;;;;;;;;5053550;28;20414;-63
2021/12/24 07:01:05;;;;;;;2.97;2.97;;;;;;;;;;5053910;28;20406;-62
2021/12/24 07:03:31;;;;;;;2.97;2.77;;;;;;;;;;5053416;28;20870;-62
2021/12/24 07:05:57;;;;;;;2.93;2.20;;;;;;;;;;5053408;28;20407;-63
2021/12/24 07:08:24;;;;;;;2.57;2.47;;;;;;;;;;5053638;28;20461;-62
2021/12/24 07:10:50;;;;;;;3.27;3.17;;;;;;;;;;5053190;28;20463;-62
2021/12/24 07:13:16;;;;;;;3.00;2.90;;;;;;;;;;5053385;28;20764;-65
2021/12/24 07:15:42;;;;;;;2.57;2.50;;;;;;;;;;5053367;28;20401;-66
2021/12/24 07:18:08;;;;;;;2.83;2.73;;;;;;;;;;5053234;28;20431;-62
2021/12/24 07:20:34;;;;;;;2.73;2.60;;;;;;;;;;5053342;28;20395;-62
2021/12/24 07:23:00;;;;;;;2.90;2.80;;;;;;;;;;5053264;28;20423;-62
2021/12/24 07:25:26;;;;;;;3.13;2.63;;;;;;;;;;5053371;28;20466;-64
2021/12/24 07:27:52;;;;;;;2.80;2.70;;;;;;;;;;5053119;28;20751;-64
2021/12/24 07:30:20;;;;;;;7.53;2.50;;;;;;;;;;5053371;28;20407;-62
2021/12/24 07:32:46;;;;;;;2.70;2.60;;;;;;;;;;5053454;28;20426;-62
2021/12/24 07:35:12;;;;;;;3.73;3.40;;;;;;;;;;5053124;28;20418;-63
2021/12/24 07:37:39;;;;;;;3.60;3.33;;;;;;;;;;5053124;28;20400;-63
2021/12/24 07:40:06;;;;;;;3.30;3.07;;;;;;;;;;5053132;28;20486;-64
2021/12/24 07:42:32;;;;;;;3.70;3.50;;;;;;;;;;5053042;28;20403;-62
2021/12/24 07:44:58;;;;;;;3.40;3.30;;;;;;;;;;5052911;28;20494;-63
2021/12/24 07:47:31;;;;;;;4.10;3.60;;;;;;;;;;5052942;28;20399;-65
2021/12/24 07:50:03;;;;;;;3.57;3.47;;;;;;;;;;5054613;28;20893;-64
2021/12/24 07:52:29;;;;;;;5.40;4.67;;;;;;;;;;5056823;28;20474;-65
2021/12/24 07:54:56;;;;;;;3.90;3.63;;;;;;;;;;5056757;28;20469;-64
2021/12/24 07:57:22;;;;;;;3.57;3.37;;;;;;;;;;5056852;28;20399;-65
2021/12/24 07:59:48;;;;;;;3.70;3.50;;;;;;;;;;5056934;28;20403;-66
2021/12/24 08:02:15;;;;;;;3.57;3.47;;;;;;;;;;5056597;28;20748;-66
2021/12/24 08:04:42;;;;;;;3.40;3.30;;;;;;;;;;5056508;28;20469;-65
2021/12/24 08:07:08;;;;;;;5.77;3.73;;;;;;;;;;5056577;28;20402;-68
2021/12/24 08:09:37;;;;;;;3.40;3.20;;;;;;;;;;5056441;28;20894;-69
2021/12/24 08:12:03;;;;;;;5.53;3.53;;;;;;;;;;5056765;28;20407;-67
2021/12/24 08:14:31;;;;;;;2.90;2.70;;;;;;;;;;5056461;28;20525;-65
2021/12/24 08:16:57;;;;;;;6.00;4.50;;;;;;;;;;5056737;28;20501;-70
2021/12/24 08:19:22;;;;;;;3.10;3.00;;;;;;;;;;5056368;28;20502;-68
2021/12/24 08:21:48;;;;;;;8.53;4.20;;;;;;;;;;5056357;28;20403;-67
2021/12/24 08:24:15;;;;;;;4.00;3.50;;;;;;;;;;5056120;28;20450;-67
2021/12/24 08:26:42;;;;;;;7.53;4.20;;;;;;;;;;5056270;28;20411;-66
2021/12/24 08:29:08;;;;;;;4.73;4.33;;;;;;;;;;5056142;28;20452;-66
2021/12/24 08:31:34;;;;;;;3.93;3.70;;;;;;;;;;5056439;28;20497;-68
2021/12/24 08:34:01;;;;;;;4.53;4.33;;;;;;;;;;5056154;28;20392;-65
2021/12/24 08:36:27;;;;;;;4.00;3.87;;;;;;;;;;5055977;28;20457;-64
2021/12/24 08:38:55;;;;;;;3.73;3.63;;;;;;;;;;5056095;28;20494;-63
2021/12/24 08:41:21;;;;;;;4.20;4.00;;;;;;;;;;5056144;28;20501;-64
2021/12/24 08:43:47;;;;;;;4.90;4.40;;;;;;;;;;5055818;28;20399;-65
2021/12/24 08:46:13;;;;;;;3.70;3.60;;;;;;;;;;5055822;28;20422;-65
2021/12/24 08:48:39;;;;;;;5.60;4.13;;;;;;;;;;5056018;28;20827;-65
2021/12/24 08:51:05;;;;;;;4.37;4.13;;;;;;;;;;5055800;28;20399;-68
2021/12/24 08:53:30;;;;;;;5.27;4.83;;;;;;;;;;5055645;28;20541;-63
2021/12/24 08:55:56;;;;;;;4.83;4.27;;;;;;;;;;5055536;28;20407;-67
2021/12/24 08:58:22;;;;;;;3.43;3.20;;;;;;;;;;5055637;28;20395;-68
2021/12/24 09:00:49;;;;;;;4.77;4.57;;;;;;;;;;5055290;28;20802;-65
2021/12/24 09:03:15;;;;;;;4.90;4.60;;;;;;;;;;5055724;28;20406;-66
2021/12/24 09:05:41;;;;;;;4.10;4.00;;;;;;;;;;5055648;28;20479;-65
2021/12/24 09:08:07;;;;;;;4.17;3.97;;;;;;;;;;5055477;28;20474;-64
2021/12/24 09:10:33;;;;;;;4.20;4.00;;;;;;;;;;5055335;28;20517;-65
2021/12/24 09:13:00;;;;;;;3.60;3.50;;;;;;;;;;5055356;28;20485;-65
2021/12/24 09:15:29;;;;;;;4.00;3.60;;;;;;;;;;5055285;28;20392;-64
2021/12/24 09:17:56;;;;;;;3.90;3.80;;;;;;;;;;5055479;28;20403;-64
2021/12/24 09:20:27;;;;;;;4.83;4.30;;;;;;;;;;5055108;28;20448;-66
2021/12/24 09:22:55;;;;;;;3.83;3.53;;;;;;;;;;5055400;28;20465;-65
2021/12/24 09:25:22;;;;;;;3.87;3.67;;;;;;;;;;5055039;28;20502;-64
2021/12/24 09:27:48;;;;;;;4.40;4.00;;;;;;;;;;5055109;28;20453;-64
2021/12/24 09:30:15;;;;;;;7.77;7.00;;;;;;;;;;5055047;28;20814;-63
2021/12/24 09:32:41;;;;;;;4.23;4.13;;;;;;;;;;5055013;28;20418;-63
2021/12/24 09:35:08;;;;;;;5.83;4.40;;;;;;;;;;5053661;28;20419;-64
2021/12/24 09:37:34;;;;;;;4.80;4.43;;;;;;;;;;5054807;28;20449;-65
2021/12/24 09:40:00;;;;;;;4.57;3.83;;;;;;;;;;5054785;28;20958;-63
2021/12/24 09:42:28;;;;;;;4.87;4.53;;;;;;;;;;5054805;28;20395;-66
2021/12/24 09:44:54;;;;;;;4.70;4.50;;;;;;;;;;5054833;28;20462;-65
2021/12/24 09:47:22;;;;;;;4.57;4.27;;;;;;;;;;5054680;28;20399;-69
2021/12/24 09:49:49;;;;;;;4.43;4.23;;;;;;;;;;5054617;28;20446;-67
2021/12/24 09:52:15;;;;;;;4.17;3.97;;;;;;;;;;5054526;28;20399;-65
2021/12/24 09:54:45;;;;;;;5.17;4.03;;;;;;;;;;5054504;28;20885;-67
2021/12/24 09:57:11;;;;;;;4.20;4.10;;;;;;;;;;5054484;28;20403;-69
2021/12/24 09:59:37;;;;;;;4.67;4.20;;;;;;;;;;5054759;28;20476;-66
2021/12/24 10:02:04;;;;;;;4.20;4.00;;;;;;;;;;5054421;28;20395;-65
2021/12/24 10:04:32;;;;;;;4.53;4.23;;;;;;;;;;5054067;28;20944;-63
2021/12/24 10:06:59;;;;;;;4.30;4.10;;;;;;;;;;5054544;28;20506;-63
2021/12/24 10:09:39;;;;;;;3.97;3.67;;;;;;;;;;5054294;28;20890;-68
2021/12/24 10:12:10;;;;;;;5.87;4.30;;;;;;;;;;5053889;28;20415;-67
2021/12/24 10:14:37;;;;;;;4.30;4.10;;;;;;;;;;5054222;28;20400;-64
2021/12/24 10:17:04;;;;;;;6.60;4.40;;;;;;;;;;5054075;28;20384;-68
2021/12/24 10:19:42;;;;;;;4.50;4.20;;;;;;;;;;5054054;28;20427;-66
2021/12/24 10:22:08;;;;;;;4.37;4.10;;;;;;;;;;5053979;28;20388;-64
2021/12/24 10:24:34;;;;;;;4.90;4.60;;;;;;;;;;5053941;28;20546;-65
2021/12/24 10:27:00;;;;;;;4.83;4.63;;;;;;;;;;5053987;28;20430;-66
2021/12/24 10:29:34;;;;;;;6.07;5.67;;;;;;;;;;5053752;28;20774;-67
2021/12/24 10:32:08;;;;;;;6.60;5.37;;;;;;;;;;5053841;28;20407;-68
2021/12/24 10:34:34;;;;;;;5.30;4.97;;;;;;;;;;5054200;28;20411;-68
2021/12/24 10:37:15;;;;;;;6.03;5.40;;;;;;;;;;5053762;28;20402;-67
2021/12/24 10:39:46;;;;;;;4.63;4.40;;;;;;;;;;5053684;28;20890;-65
2021/12/24 10:42:12;;;;;;;6.10;5.60;;;;;;;;;;5053677;28;20403;-68
2021/12/24 10:44:39;;;;;;;7.33;6.77;;;;;;;;;;5054132;28;20945;-71
2021/12/24 10:47:16;;;;;;;7.43;6.73;;;;;;;;;;5053994;28;20406;-70
2021/12/24 10:55:06;;;;;;;8.23;7.30;;;;;;;;;;5054038;28;20441;-70
2021/12/24 10:57:33;;;;;;;8.27;7.50;;;;;;;;;;5053763;28;20395;-64
2021/12/24 11:00:00;;;;;;;4.97;4.60;;;;;;;;;;5053563;28;20399;-71
2021/12/24 11:02:32;;;;;;;4.70;4.47;;;;;;;;;;5053749;28;20394;-65
2021/12/24 11:04:58;;;;;;;5.03;4.40;;;;;;;;;;5054493;28;20458;-68
2021/12/24 11:07:31;;;;;;;5.93;4.80;;;;;;;;;;5054422;28;20470;-69
2021/12/24 11:10:12;;;;;;;4.00;3.80;;;;;;;;;;5053714;28;20953;-65
2021/12/24 11:12:39;;;;;;;4.30;3.90;;;;;;;;;;5053864;28;20945;-68
2021/12/24 11:15:18;;;;;;;4.00;3.80;;;;;;;;;;5053873;28;20415;-69
2021/12/24 11:17:44;;;;;;;3.93;3.70;;;;;;;;;;5053731;28;20398;-70
2021/12/24 11:20:11;;;;;;;5.57;5.27;;;;;;;;;;5053519;28;20398;-71
2021/12/24 11:22:50;;;;;;;5.27;4.73;;;;;;;;;;5053361;28;20477;-71
2021/12/24 11:25:16;;;;;;;5.40;5.10;;;;;;;;;;5057336;28;20515;-71
2021/12/24 11:27:42;;;;;;;6.13;5.53;;;;;;;;;;5057392;28;20396;-71
2021/12/24 11:30:09;;;;;;;5.07;4.77;;;;;;;;;;5057254;28;20419;-65
2021/12/24 11:32:35;;;;;;;4.37;4.07;;;;;;;;;;5057223;28;20391;-71
2021/12/24 11:35:01;;;;;;;4.20;3.80;;;;;;;;;;5057200;28;20410;-72
2021/12/24 11:37:28;;;;;;;3.83;3.60;;;;;;;;;;5057164;28;20395;-70
2021/12/24 11:39:54;;;;;;;2.90;2.80;;;;;;;;;;5057059;28;20407;-65
2021/12/24 11:42:21;;;;;;;2.70;2.70;;;;;;;;;;5057068;28;20391;-70
2021/12/24 11:44:48;;;;;;;4.20;3.90;;;;;;;;;;5057229;28;20470;-70
2021/12/24 11:47:15;;;;;;;3.53;3.23;;;;;;;;;;5057033;28;20414;-70
2021/12/24 11:49:41;;;;;;;3.37;3.33;;;;;;;;;;5056935;28;20406;-71
2021/12/24 11:52:07;;;;;;;3.97;3.67;;;;;;;;;;5056974;28;20391;-65
2021/12/24 11:54:33;;;;;;;3.53;3.40;;;;;;;;;;5056835;28;20761;-64
2021/12/24 11:56:59;;;;;;;4.93;3.00;;;;;;;;;;5056831;28;20407;-70
2021/12/24 11:59:36;;;;;;;3.37;3.17;;;;;;;;;;5056789;28;20423;-70
2021/12/24 12:02:02;;;;;;;3.63;3.53;;;;;;;;;;5056673;28;20406;-65
2021/12/24 12:04:28;;;;;;;4.00;3.63;;;;;;;;;;5056582;28;20462;-66
2021/12/24 12:07:10;;;;;;;3.77;3.60;;;;;;;;;;5056617;28;20410;-71
2021/12/24 12:09:43;;;;;;;2.90;2.90;;;;;;;;;;5056391;28;20793;-71
2021/12/24 12:12:13;;;;;;;5.30;3.67;;;;;;;;;;5056438;28;20414;-71
2021/12/24 12:14:39;;;;;;;3.50;3.33;;;;;;;;;;5056227;28;20407;-65
2021/12/24 12:17:07;;;;;;;3.50;3.40;;;;;;;;;;5056334;28;20407;-69
2021/12/24 12:22:18;;;;;;;4.73;4.40;;;;;;;;;;5056311;28;20763;-65
2021/12/24 12:24:57;;;;;;;5.37;5.07;;;;;;;;;;5056224;28;20883;-65
2021/12/24 12:27:31;;;;;;;4.43;4.23;;;;;;;;;;5056183;28;20751;-67
2021/12/24 12:29:58;;;;;;;3.90;3.70;;;;;;;;;;5056258;28;20407;-69
2021/12/24 12:32:28;;;;;;;4.87;4.03;;;;;;;;;;5056414;28;20753;-66
2021/12/24 12:34:57;;;;;;;4.90;4.40;;;;;;;;;;5055474;28;20424;-66
2021/12/24 12:37:26;;;;;;;5.70;5.40;;;;;;;;;;5056086;28;20404;-67
2021/12/24 12:39:53;;;;;;;7.57;6.97;;;;;;;;;;5056015;28;20479;-67
2021/12/24 12:42:19;;;;;;;6.77;5.40;;;;;;;;;;5055964;28;20394;-67
2021/12/24 12:44:48;;;;;;;5.57;5.07;;;;;;;;;;5055816;28;20578;-68
2021/12/24 12:47:21;;;;;;;8.57;6.00;;;;;;;;;;5055860;28;20490;-65
2021/12/24 12:49:47;;;;;;;5.17;4.77;;;;;;;;;;5055841;28;20834;-71
2021/12/24 12:52:27;;;;;;;8.00;5.67;;;;;;;;;;5055970;28;20403;-66
2021/12/24 12:54:58;;;;;;;7.93;6.10;;;;;;;;;;5056013;28;20391;-69
2021/12/24 12:57:29;;;;;;;5.43;5.00;;;;;;;;;;5055574;28;20391;-65
2021/12/24 13:00:12;;;;;;;10.23;5.73;;;;;;;;;;5055467;28;20460;-66
2021/12/24 13:02:57;;;;;;;5.17;4.80;;;;;;;;;;5055734;28;20395;-65
2021/12/24 13:05:24;;;;;;;3.70;3.50;;;;;;;;;;5055676;28;20467;-66
2021/12/24 13:07:50;;;;;;;4.47;4.17;;;;;;;;;;5055667;28;20431;-67
2021/12/24 13:10:20;;;;;;;10.10;5.17;;;;;;;;;;5055277;28;20481;-67
2021/12/24 13:12:46;;;;;;;7.50;6.90;;;;;;;;;;5055423;28;20400;-66
2021/12/24 13:15:16;;;;;;;5.60;5.07;;;;;;;;;;5055283;28;20533;-67
2021/12/24 13:17:48;;;;;;;4.50;4.30;;;;;;;;;;5055332;28;20395;-65
2021/12/24 13:22:40;;;;;;;4.50;4.20;;;;;;;;;;5055526;28;20403;-65
2021/12/24 13:25:12;;;;;;;3.83;3.63;;;;;;;;;;5055034;28;20975;-64
2021/12/24 13:27:41;;;;;;;2.93;2.70;;;;;;;;;;5055411;28;20406;-65
2021/12/24 13:30:07;;;;;;;6.40;4.03;;;;;;;;;;5055040;28;20427;-70
2021/12/24 13:32:37;;;;;;;3.20;3.00;;;;;;;;;;5055074;28;20892;-66
2021/12/24 13:35:03;;;;;;;4.10;3.20;;;;;;;;;;5053754;28;20840;-66
2021/12/24 13:37:31;;;;;;;3.57;3.37;;;;;;;;;;5054888;28;20404;-65
2021/12/24 13:39:57;;;;;;;5.67;5.07;;;;;;;;;;5054818;28;20407;-67
2021/12/24 13:42:23;;;;;;;4.37;4.17;;;;;;;;;;5054833;28;20488;-65
2021/12/24 13:44:49;;;;;;;4.47;4.27;;;;;;;;;;5054789;28;20945;-65
2021/12/24 13:47:27;;;;;;;4.83;4.37;;;;;;;;;;5052559;28;20423;-70
2021/12/24 13:50:21;;;;;;;7.27;5.03;;;;;;;;;;5055004;28;20414;-71
2021/12/24 13:55:33;;;;;;;5.27;4.87;;;;;;;;;;5054766;28;20402;-67
2021/12/24 13:58:03;;;;;;;8.63;6.00;;;;;;;;;;5054626;28;20407;-67
2021/12/24 14:00:30;;;;;;;4.10;3.80;;;;;;;;;;5054788;28;20414;-66
2021/12/24 14:03:01;;;;;;;4.63;4.30;;;;;;;;;;5054450;28;20399;-65
2021/12/24 14:05:27;;;;;;;5.13;4.73;;;;;;;;;;5054300;28;20561;-65
2021/12/24 14:08:03;;;;;;;6.23;5.53;;;;;;;;;;5054450;28;20475;-67
2021/12/24 14:10:29;;;;;;;6.30;5.70;;;;;;;;;;5054046;28;20527;-68
2021/12/24 14:13:03;;;;;;;13.53;7.77;;;;;;;;;;5054219;28;20411;-65
2021/12/24 14:15:30;;;;;;;9.70;5.17;;;;;;;;;;5054498;28;20404;-65
2021/12/24 14:18:21;;;;;;;5.40;4.93;;;;;;;;;;5054166;28;20418;-68
2021/12/24 14:23:31;;;;;;;4.10;3.80;;;;;;;;;;5054367;28;20421;-71
2021/12/24 14:26:01;;;;;;;8.63;6.27;;;;;;;;;;5053935;28;20467;-70
2021/12/24 14:28:27;;;;;;;4.70;4.40;;;;;;;;;;5053970;28;20402;-71
2021/12/24 14:31:03;;;;;;;9.63;8.37;;;;;;;;;;5054209;28;20430;-71
2021/12/24 14:33:35;;;;;;;7.97;7.17;;;;;;;;;;5054297;28;20884;-70
2021/12/24 14:36:01;;;;;;;12.10;7.70;;;;;;;;;;5053863;28;20750;-72
2021/12/24 14:38:27;;;;;;;9.07;8.13;;;;;;;;;;5053788;28;20398;-71
2021/12/24 14:40:58;;;;;;;11.33;8.97;;;;;;;;;;5053810;28;20403;-67
2021/12/24 14:43:25;;;;;;;7.90;6.87;;;;;;;;;;5053638;28;20407;-69
2021/12/24 14:45:51;;;;;;;8.20;5.53;;;;;;;;;;5053713;28;20963;-64
2021/12/24 14:48:29;;;;;;;6.70;6.23;;;;;;;;;;5053670;28;20399;-66
2021/12/24 14:51:01;;;;;;;12.97;7.50;;;;;;;;;;5053541;28;20390;-66
2021/12/24 14:53:33;;;;;;;8.10;6.40;;;;;;;;;;5053589;28;20398;-65
2021/12/24 14:56:04;;;;;;;9.67;6.90;;;;;;;;;;5053828;28;20410;-68
2021/12/24 14:58:44;;;;;;;8.33;7.53;;;;;;;;;;5053532;28;20395;-66
2021/12/24 15:01:10;;;;;;;9.57;6.93;;;;;;;;;;5053554;28;20429;-66
2021/12/24 15:03:38;;;;;;;10.70;7.00;;;;;;;;;;5053461;28;20862;-69
2021/12/24 15:06:20;;;;;;;11.57;7.80;;;;;;;;;;5053605;28;20506;-67
2021/12/24 15:08:47;;;;;;;9.43;6.90;;;;;;;;;;5053381;28;20398;-66
2021/12/24 15:11:16;;;;;;;7.20;6.50;;;;;;;;;;5053388;28;20498;-66
2021/12/24 15:13:44;;;;;;;11.67;7.40;;;;;;;;;;5053534;28;20423;-66
2021/12/24 15:16:12;;;;;;;16.10;9.90;;;;;;;;;;5053253;28;20785;-66
2021/12/24 15:18:38;;;;;;;11.10;7.63;;;;;;;;;;5053274;28;20879;-68
2021/12/24 15:21:05;;;;;;;11.83;9.43;;;;;;;;;;5053440;28;20414;-71
2021/12/24 15:23:31;;;;;;;12.43;11.23;;;;;;;;;;5053283;28;20771;-67
2021/12/24 15:25:58;;;;;;;10.00;9.20;;;;;;;;;;5053154;28;20469;-67
2021/12/24 15:28:24;;;;;;;6.77;6.20;;;;;;;;;;5053307;28;20395;-64
2021/12/24 15:30:51;;;;;;;7.37;6.77;;;;;;;;;;5052011;28;20794;-67
2021/12/24 15:33:18;;;;;;;5.53;5.00;;;;;;;;;;5053408;28;20414;-69
2021/12/24 15:35:46;;;;;;;5.43;5.13;;;;;;;;;;5053099;28;20482;-68
2021/12/24 15:38:12;;;;;;;5.57;5.27;;;;;;;;;;5053081;28;20402;-67
2021/12/24 15:40:38;;;;;;;7.20;6.70;;;;;;;;;;5053092;28;20430;-69
2021/12/24 15:43:04;;;;;;;6.90;6.30;;;;;;;;;;5052978;28;20886;-65
2021/12/24 15:45:31;;;;;;;5.73;5.20;;;;;;;;;;5053223;28;20476;-66
2021/12/24 15:47:57;;;;;;;5.90;5.47;;;;;;;;;;5053150;28;20474;-69
2021/12/24 15:50:23;;;;;;;5.53;5.23;;;;;;;;;;5053286;28;20794;-67
2021/12/24 15:52:49;;;;;;;5.40;5.10;;;;;;;;;;5053035;28;20395;-69
2021/12/24 15:55:15;;;;;;;6.20;5.80;;;;;;;;;;5053066;28;20419;-71
2021/12/24 15:57:41;;;;;;;5.37;5.17;;;;;;;;;;5053216;28;20410;-68
2021/12/24 16:00:08;;;;;;;7.20;6.70;;;;;;;;;;5052907;28;20859;-71
2021/12/24 16:02:34;;;;;;;6.90;6.27;;;;;;;;;;5052881;28;20418;-69
2021/12/24 16:05:00;;;;;;;6.80;6.30;;;;;;;;;;5053061;28;20470;-69
2021/12/24 16:07:26;;;;;;;6.47;6.10;;;;;;;;;;5052836;28;20427;-69
2021/12/24 16:09:52;;;;;;;6.90;6.50;;;;;;;;;;5052900;28;20486;-70
2021/12/24 16:12:18;;;;;;;7.40;6.73;;;;;;;;;;5056379;28;20403;-69
2021/12/24 16:14:44;;;;;;;9.80;6.53;;;;;;;;;;5056737;28;20410;-70
2021/12/24 16:17:11;;;;;;;9.07;6.97;;;;;;;;;;5056357;28;20900;-66
2021/12/24 16:19:37;;;;;;;7.20;6.60;;;;;;;;;;5056348;28;20400;-68
2021/12/24 16:22:03;;;;;;;8.23;7.60;;;;;;;;;;5056254;28;20410;-70
2021/12/24 16:24:29;;;;;;;7.30;6.87;;;;;;;;;;5056552;28;20817;-69
2021/12/24 16:26:55;;;;;;;6.20;5.90;;;;;;;;;;5056303;28;20399;-70
2021/12/24 16:29:41;;;;;;;11.53;7.40;;;;;;;;;;5054849;28;20466;-70
2021/12/24 16:32:07;;;;;;;7.33;6.83;;;;;;;;;;5056016;28;20414;-70
2021/12/24 16:34:35;;;;;;;11.57;8.37;;;;;;;;;;5056072;28;20403;-69
2021/12/24 16:37:01;;;;;;;9.87;8.33;;;;;;;;;;5054732;28;20426;-70
2021/12/24 16:39:27;;;;;;;11.00;8.10;;;;;;;;;;5055998;28;20530;-68
2021/12/24 16:41:53;;;;;;;6.63;6.13;;;;;;;;;;5056008;28;20410;-69
2021/12/24 16:44:19;;;;;;;8.23;7.63;;;;;;;;;;5056132;28;20460;-72
2021/12/24 16:46:45;;;;;;;7.20;6.63;;;;;;;;;;5055922;28;20410;-64
2021/12/24 16:49:11;;;;;;;9.13;8.23;;;;;;;;;;5055904;28;20481;-65